Nearby METAR Reports

 

EDNY - Friedrichshafen, Germany
Distance from station: ONO 32km
aktuell: 25.09.2018 23:20
klar
klar
 Wind von NNO
Wind: NNO 20 km/h
Temperatur: 8°C
gefühlte Temperatur: 4°C
Taupunkt: 0°C
Luftfeuchte: 57%
Luftdruck: 1035 hPa
Clouds: klar
Visibility: 10 km
2018/09/25 21:20 EDNY 252120Z AUTO 02011KT 9999 // NCD 08/00 Q1035
LSZR - Rheineck/Altenrh, Switzerland
Distance from station: OSO 37km
aktuell: 25.09.2018 23:50
klar
klar
 Wind von varies
Wind: varies 6 km/h
Temperatur: 6°C
Taupunkt: 4°C
Luftfeuchte: 87%
Luftdruck: 1035 hPa
Zusammenfassung: klar
Visibility: greater than 10 km
2018/09/25 21:50 LSZR 252150Z AUTO VRB03KT CAVOK 06/04 Q1035
LSMD - Dubendorf, Switzerland
Distance from station: SW 40km
aktuell: 25.09.2018 23:50
klar
klar
 Wind von varies
Wind: varies 6 km/h
Temperatur: 9°C
Taupunkt: 2°C
Luftfeuchte: 62%
Luftdruck: 1035 hPa
Clouds: klar
Visibility: 16 miles
2018/09/25 21:50 LSMD 252150Z AUTO VRB03KT 9999NDV NCD 09/02 Q1035 RMK
 
LSZH - Zurich-Kloten (a, Switzerland
Distance from station: WSW 44km
aktuell: 25.09.2018 23:50
klar
klar
 Wind von NW
Wind: NW 9 km/h
Temperatur: 8°C
gefühlte Temperatur: 6°C
Taupunkt: 1°C
Luftfeuchte: 62%
Luftdruck: 1035 hPa
Zusammenfassung: klar
Visibility: greater than 10 km
2018/09/25 21:50 LSZH 252150Z 32005KT 260V040 CAVOK 08/01 Q1035 NOSIG
LOIH - Hohenems-Dornbir, Austria
Distance from station: OSO 51km
aktuell: 31.10.2016 17:00
NOT Current
geschlossene Wolkendecke
geschlossene Wolkendecke
 Wind von calm
Wind: Windstill
Temperatur: 10°C
Taupunkt: 9°C
Luftfeuchte: 94%
Luftdruck: 1026 hPa
Clouds: geschlossene Wolkendecke
Cloud details: geschlossene Wolkendecke 305 m
2016/10/31 16:00 LOIH 311600Z 00000KT 10KM OVC010ST 10/09 Q1026 RMK OVC
LSME - Emmen, Switzerland
Distance from station: SW 82km
aktuell: 25.09.2018 23:50
klar
klar
 Wind von calm
Wind: Windstill
Temperatur: 8°C
Taupunkt: 3°C
Luftfeuchte: 71%
Luftdruck: 1035 hPa
Clouds: klar
Visibility: 16 miles
2018/09/25 21:50 LSME 252150Z AUTO 00000KT 9999NDV NCD 08/03 Q1035 RMK
 
LSZC - Buochs, Switzerland
Distance from station: SW 89km
aktuell: 25.09.2018 23:50
klar
klar
 Wind von varies
Wind: varies 6 km/h
Temperatur: 8°C
Taupunkt: 5°C
Luftfeuchte: 82%
Luftdruck: 1034 hPa
Zusammenfassung: klar
Visibility: greater than 10 km
2018/09/25 21:50 LSZC 252150Z AUTO VRB03KT CAVOK 08/05 Q1034
ETHL - Laupheim (ger-Ar, Germany
Distance from station: NO 92km
aktuell: 25.09.2018 23:20
Few Clouds
Few Clouds
 Wind von ONO
Wind: ONO 15 km/h
Temperatur: 6°C
gefühlte Temperatur: 3°C
Taupunkt: 0°C
Luftfeuchte: 66%
Luftdruck: 1037 hPa
Clouds: Few Clouds
Visibility: 10 km
Cloud details: Few Clouds 9144 m
2018/09/25 21:20 ETHL 252120Z 07008KT 9999 FEW300 06/M00 Q1037 BLU+FCST CANCEL
EDJA - Memmingen Allgau, Germany
Distance from station: ONO 95km
aktuell: 25.09.2018 21:50
NOT Current
klar
klar
 Wind von O
Wind: O 19 km/h
Temperatur: 5°C
gefühlte Temperatur: 1°C
Taupunkt: 0°C
Luftfeuchte: 70%
Luftdruck: 1036 hPa
Zusammenfassung: klar
Visibility: greater than 10 km
2018/09/25 19:50 EDJA 251950Z 08010KT CAVOK 05/00 Q1036
 
LSMA - Alpnach, Switzerland
Distance from station: SW 95km
aktuell: 25.09.2018 23:50
klar
klar
 Wind von varies
Wind: varies 2 km/h
Temperatur: 7°C
Taupunkt: 5°C
Luftfeuchte: 87%
Luftdruck: 1034 hPa
Clouds: klar
Visibility: 16 miles
2018/09/25 21:50 LSMA 252150Z AUTO VRB01KT 9999NDV NCD 07/05 Q1034 RMK